German Bay — V2AI1 — position and weather

sailwx.info

Track history (hours):
 
Tides and Currents Weather Stations Pressure Air Temp Water Temp Dewpoint Dewpoint Depression Visibility Wind Speed Wind Dir Waves Ship Positions

German Bay

Last reported at 2018-Jun-24 02:59 UTC. Time now 2018-Jun-24 03:09 UTC.
Position N 43°25' E 004°56'.

Length 100 m; draft 4 m.

Type: Ship. MMSI: 304010763.

Date/timePositionNaut miles runAvg speedWind from/ knotsBaromVisibWave heightAir tempDewpointWater temp
2018-Jun-24 02:59N 43°25' E 004°56'0 0.0
2018-Jun-24 02:29N 43°25' E 004°56'0 0.0
2018-Jun-24 01:59N 43°25' E 004°56'0 0.0
2018-Jun-24 01:29N 43°25' E 004°56'0 0.0
2018-Jun-24 00:53N 43°25' E 004°56'0 0.0
2018-Jun-24 00:29N 43°25' E 004°56'0 0.0
2018-Jun-23 23:59N 43°25' E 004°56'0 0.0
2018-Jun-23 23:29N 43°25' E 004°56'0 0.0
2018-Jun-23 22:59N 43°25' E 004°56'0 0.0
2018-Jun-23 22:29N 43°25' E 004°56'0 0.0
2018-Jun-23 21:59N 43°25' E 004°56'0 0.0
2018-Jun-23 21:29N 43°25' E 004°56'0 0.0
2018-Jun-23 20:59N 43°25' E 004°56'0 0.0
2018-Jun-23 20:29N 43°25' E 004°56'0 0.0
2018-Jun-23 19:56N 43°25' E 004°56'0 0.1
2018-Jun-23 19:23N 43°25' E 004°56'0 0.0
2018-Jun-23 18:59N 43°25' E 004°56'0 0.1
2018-Jun-23 18:29N 43°25' E 004°56'0 0.0
2018-Jun-23 17:59N 43°25' E 004°56'0 0.0
2018-Jun-23 17:23N 43°25' E 004°56'0 0.0
2018-Jun-23 16:53N 43°25' E 004°56'0 0.0
2018-Jun-23 16:29N 43°25' E 004°56'0 0.0
2018-Jun-23 15:59N 43°25' E 004°56'0 0.0
2018-Jun-23 15:29N 43°25' E 004°56'0 0.0
2018-Jun-23 14:59N 43°25' E 004°56'0 0.0
2018-Jun-23 14:29N 43°25' E 004°56'0 0.0
2018-Jun-23 13:59N 43°25' E 004°56'0 0.0
2018-Jun-23 13:29N 43°25' E 004°56'0 0.0
2018-Jun-23 12:53N 43°25' E 004°56'0 0.0
2018-Jun-23 12:29N 43°25' E 004°56'0 0.0
2018-Jun-23 11:59N 43°25' E 004°56'0 0.0
2018-Jun-23 11:29N 43°25' E 004°56'0 0.0
2018-Jun-23 10:59N 43°25' E 004°56'0 0.0
2018-Jun-23 10:29N 43°25' E 004°56'0 0.1
2018-Jun-23 09:59N 43°25' E 004°56'0 0.0
2018-Jun-23 09:29N 43°25' E 004°56'0 0.0
2018-Jun-23 08:59N 43°25' E 004°56'0 0.0
2018-Jun-23 08:29N 43°25' E 004°56'0 0.0
2018-Jun-23 07:59N 43°25' E 004°56'0 0.0
2018-Jun-23 07:29N 43°25' E 004°56'0 0.0
2018-Jun-23 06:59N 43°25' E 004°56'0 0.0
2018-Jun-23 06:29N 43°25' E 004°56'0 0.0
2018-Jun-23 05:59N 43°25' E 004°56'0 0.0
2018-Jun-23 05:29N 43°25' E 004°56'0 0.0
2018-Jun-23 04:59N 43°25' E 004°56'0 0.0
2018-Jun-23 04:29N 43°25' E 004°56'0 0.0
2018-Jun-23 03:56N 43°25' E 004°56'0 0.0
2018-Jun-23 03:29N 43°25' E 004°56'0 0.0
2018-Jun-23 02:59N 43°25' E 004°56'0 0.0
2018-Jun-23 02:29N 43°25' E 004°56'0 0.0
2018-Jun-23 01:59N 43°25' E 004°56'0 0.0
2018-Jun-23 01:29N 43°25' E 004°56'0 0.0
2018-Jun-23 00:59N 43°25' E 004°56'0 0.0
2018-Jun-23 00:29N 43°25' E 004°56'0 0.0
2018-Jun-22 23:59N 43°25' E 004°56'0 0.0
2018-Jun-22 23:29N 43°25' E 004°56'0 0.0
2018-Jun-22 22:59N 43°25' E 004°56'0 0.0
2018-Jun-22 22:26N 43°25' E 004°56'0 0.0
2018-Jun-22 21:59N 43°25' E 004°56'0 0.0
2018-Jun-22 21:29N 43°25' E 004°56'0 0.0
2018-Jun-22 20:59N 43°25' E 004°56'0 0.0
2018-Jun-22 20:29N 43°25' E 004°56'0 0.0
2018-Jun-22 19:59N 43°25' E 004°56'2 3.4
2018-Jun-22 19:30N 43°23' E 004°57'4 8.9
2018-Jun-22 19:00N 43°19' E 004°59'13 8.6
2018-Jun-22 17:33N 43°07' E 004°57'1 9.0
2018-Jun-22 17:29N 43°06' E 004°57'4 9.0
2018-Jun-22 17:00N 43°03' E 004°52'128 9.9
2018-Jun-22 04:07N 41°34' E 002°49'210.7
2018-Jun-22 03:56N 41°33' E 002°47'711.1
2018-Jun-22 03:19N 41°29' E 002°40'411.3
2018-Jun-22 03:00N 41°26' E 002°36'611.5
2018-Jun-22 02:30N 41°23' E 002°30'611.2
2018-Jun-22 02:00N 41°19' E 002°25'611.1
2018-Jun-22 01:30N 41°15' E 002°19'611.0
2018-Jun-22 00:56N 41°12' E 002°13'510.9
2018-Jun-22 00:29N 41°09' E 002°07'510.8
2018-Jun-22 00:00N 41°07' E 002°01'610.8
2018-Jun-21 23:26N 41°03' E 001°54'511.0
2018-Jun-21 23:00N 41°01' E 001°48'1311.1
2018-Jun-21 21:48N 40°54' E 001°33'411.2
2018-Jun-21 21:29N 40°53' E 001°29'511.0
2018-Jun-21 21:00N 40°50' E 001°23'10111.2
2018-Jun-21 12:02N 39°38' W 000°10'010.8
2018-Jun-21 12:00N 39°38' W 000°10'68 3.8
2018-Jun-20 18:12N 40°22' E 000°57'2210.4
2018-Jun-20 16:06N 40°37' E 001°19'510.4
2018-Jun-20 15:37N 40°40' E 001°24'310.4
2018-Jun-20 15:21N 40°42' E 001°27'410.4
2018-Jun-20 15:00N 40°44' E 001°30'510.4
2018-Jun-20 14:29N 40°47' E 001°36'610.4
2018-Jun-20 13:57N 40°51' E 001°42'610.2
2018-Jun-20 13:24N 40°54' E 001°47'810.3
2018-Jun-20 12:39N 40°60' E 001°55'310.2
2018-Jun-20 12:20N 41°02' E 001°58'610.2
2018-Jun-20 11:46N 41°05' E 002°04'310.5
2018-Jun-20 11:30N 41°07' E 002°07'510.4
2018-Jun-20 11:00N 41°11' E 002°11'510.6
2018-Jun-20 10:30N 41°15' E 002°17'510.6
2018-Jun-20 10:00N 41°18' E 002°22'510.6
2018-Jun-20 09:30N 41°22' E 002°27'510.5
2018-Jun-20 09:01N 41°24' E 002°33'14510.4
2018-Jun-19 19:07N 43°10' E 004°47'410.7
2018-Jun-19 18:45N 43°13' E 004°51'310.6
2018-Jun-19 18:30N 43°15' E 004°53'510.3
2018-Jun-19 18:00N 43°19' E 004°58'4 8.7
2018-Jun-19 17:30N 43°23' E 004°57'4 7.2
2018-Jun-19 17:00N 43°26' E 004°53'0 0.0
2018-Jun-19 16:30N 43°26' E 004°53'0 0.0
2018-Jun-19 16:00N 43°26' E 004°53'0 0.0
2018-Jun-19 15:30N 43°26' E 004°53'0 0.0
2018-Jun-19 15:00N 43°26' E 004°53'0 0.0
2018-Jun-19 14:30N 43°26' E 004°53'0 0.0
2018-Jun-19 14:00N 43°26' E 004°53'0 0.0
2018-Jun-19 13:30N 43°26' E 004°53'0 0.0
2018-Jun-19 13:00N 43°26' E 004°53'0 0.0
2018-Jun-19 12:30N 43°26' E 004°53'0 0.0
2018-Jun-19 11:57N 43°26' E 004°53'0 0.0
2018-Jun-19 11:30N 43°26' E 004°53'0 0.0
2018-Jun-19 11:00N 43°26' E 004°53'0 0.0
2018-Jun-19 10:30N 43°26' E 004°53'0 0.0
2018-Jun-19 10:00N 43°26' E 004°53'0 0.0
2018-Jun-19 09:30N 43°26' E 004°53'0 0.0
2018-Jun-19 09:00N 43°26' E 004°53'0 0.0
2018-Jun-19 08:30N 43°26' E 004°53'0 0.0
2018-Jun-19 08:00N 43°26' E 004°53'0 0.0
2018-Jun-19 07:30N 43°26' E 004°53'0 0.0
2018-Jun-19 07:00N 43°26' E 004°53'0 0.0
2018-Jun-19 06:30N 43°26' E 004°53'0 0.0
2018-Jun-19 06:00N 43°26' E 004°53'0 0.0
2018-Jun-19 05:21N 43°26' E 004°53'0 0.0
2018-Jun-19 05:00N 43°26' E 004°53'0 0.0
2018-Jun-19 04:30N 43°26' E 004°53'0 0.0
2018-Jun-19 04:00N 43°26' E 004°53'0 0.0
2018-Jun-19 03:30N 43°26' E 004°53'0 0.0
2018-Jun-19 03:00N 43°26' E 004°53'0 0.0
2018-Jun-19 02:30N 43°26' E 004°53'0 0.0
2018-Jun-19 02:00N 43°26' E 004°53'0 0.0
2018-Jun-19 01:30N 43°26' E 004°53'0 0.0
2018-Jun-19 01:00N 43°26' E 004°53'0 0.0
2018-Jun-19 00:27N 43°26' E 004°53'0 0.0
2018-Jun-19 00:00N 43°26' E 004°53'0 0.0
2018-Jun-18 23:30N 43°26' E 004°53'0 0.0
2018-Jun-18 23:00N 43°26' E 004°53'0 0.0
2018-Jun-18 22:30N 43°26' E 004°53'0 0.0
2018-Jun-18 22:00N 43°26' E 004°53'0 0.0
2018-Jun-18 21:30N 43°26' E 004°53'0 0.0
2018-Jun-18 21:00N 43°26' E 004°53'0 0.0
2018-Jun-18 20:30N 43°26' E 004°53'0 0.0
2018-Jun-18 20:00N 43°26' E 004°53'0 0.0
2018-Jun-18 19:30N 43°26' E 004°53'0 0.0
2018-Jun-18 18:54N 43°26' E 004°53'0 0.0
2018-Jun-18 18:30N 43°26' E 004°53'0 0.0
2018-Jun-18 18:00N 43°26' E 004°53'0 0.0
2018-Jun-18 17:30N 43°26' E 004°53'0 0.1
2018-Jun-18 17:01N 43°26' E 004°53'3 6.8
2018-Jun-18 16:30N 43°23' E 004°56'4 7.8
2018-Jun-18 16:00N 43°19' E 004°58'4610.8
2018-Jun-18 11:48N 43°15' E 003°56'142 9.2
2018-Jun-17 20:24N 41°14' E 002°16'511.5
2018-Jun-17 19:59N 41°12' E 002°10'511.3
2018-Jun-17 19:30N 41°10' E 002°03'511.1
2018-Jun-17 19:00N 41°08' E 001°57'611.0
2018-Jun-17 18:30N 41°07' E 001°50'510.9
2018-Jun-17 18:00N 41°05' E 001°43'12410.7
2018-Jun-17 06:26N 39°38' W 000°13'117 5.7
2018-Jun-16 09:44N 41°04' E 001°32'210.0
2018-Jun-16 09:30N 41°04' E 001°35'5 9.8
2018-Jun-16 09:00N 41°06' E 001°41'5 9.8
2018-Jun-16 08:30N 41°07' E 001°48'510.1
2018-Jun-16 08:00N 41°09' E 001°54'5 9.9
2018-Jun-16 07:30N 41°10' E 002°00'510.3
2018-Jun-16 07:01N 41°12' E 002°07'510.2
2018-Jun-16 06:30N 41°13' E 002°13'5 9.7
2018-Jun-16 06:00N 41°15' E 002°19'5 9.9
2018-Jun-16 05:30N 41°19' E 002°24'6 9.5
2018-Jun-16 04:55N 41°22' E 002°30'154 9.7
2018-Jun-15 13:01N 43°15' E 004°53'0 9.3
2018-Jun-15 12:59N 43°15' E 004°53'5 9.6
2018-Jun-15 12:30N 43°18' E 004°57'4 8.5
2018-Jun-15 12:00N 43°23' E 004°57'4 7.4
2018-Jun-15 11:30N 43°26' E 004°54'0 0.0
2018-Jun-15 10:57N 43°26' E 004°54'0 0.0
2018-Jun-15 10:30N 43°26' E 004°54'0 0.0
2018-Jun-15 10:00N 43°26' E 004°54'0 0.0
2018-Jun-15 09:30N 43°26' E 004°54'0 0.0
2018-Jun-15 08:57N 43°26' E 004°54'0 0.0
2018-Jun-15 08:27N 43°26' E 004°54'0 0.0
2018-Jun-15 08:00N 43°26' E 004°54'0 0.0
2018-Jun-15 07:30N 43°26' E 004°54'0 0.0
2018-Jun-15 06:57N 43°26' E 004°54'0 0.0
2018-Jun-15 06:21N 43°26' E 004°54'0 0.0
2018-Jun-15 05:54N 43°26' E 004°54'0 0.0
2018-Jun-15 05:27N 43°26' E 004°54'0 0.0
2018-Jun-15 04:57N 43°26' E 004°54'0 0.0
2018-Jun-15 04:30N 43°26' E 004°54'0 0.0
2018-Jun-15 03:54N 43°26' E 004°54'0 0.0
2018-Jun-15 03:30N 43°26' E 004°54'0 0.0
2018-Jun-15 03:00N 43°26' E 004°54'0 0.0
2018-Jun-15 02:24N 43°26' E 004°54'0 0.0
2018-Jun-15 02:00N 43°26' E 004°54'0 0.0
2018-Jun-15 01:30N 43°26' E 004°54'0 0.0
2018-Jun-15 01:00N 43°26' E 004°54'0 0.0
2018-Jun-15 00:30N 43°26' E 004°54'0 0.0
2018-Jun-14 23:57N 43°26' E 004°54'0 0.0
2018-Jun-14 23:24N 43°26' E 004°54'0 0.0
2018-Jun-14 23:00N 43°26' E 004°54'0 0.0
2018-Jun-14 22:30N 43°26' E 004°54'0 0.0
2018-Jun-14 22:00N 43°26' E 004°54'0 0.0
2018-Jun-14 21:30N 43°26' E 004°54'0 0.0
2018-Jun-14 21:00N 43°26' E 004°54'0 0.0
2018-Jun-14 20:30N 43°26' E 004°54'0 0.0
2018-Jun-14 20:00N 43°26' E 004°54'0 0.0
2018-Jun-14 19:27N 43°26' E 004°54'0 0.0
2018-Jun-14 19:00N 43°26' E 004°54'0 0.2
2018-Jun-14 18:30N 43°26' E 004°54'2 3.4
2018-Jun-14 18:01N 43°25' E 004°56'0 0.2
2018-Jun-14 17:29N 43°25' E 004°56'0 0.0
2018-Jun-14 16:59N 43°25' E 004°56'0 0.0
2018-Jun-14 16:29N 43°25' E 004°56'0 0.0
2018-Jun-14 15:59N 43°25' E 004°56'0 0.0
2018-Jun-14 15:29N 43°25' E 004°56'0 0.0
2018-Jun-14 14:59N 43°25' E 004°56'0 0.0
2018-Jun-14 14:29N 43°25' E 004°56'0 0.0
2018-Jun-14 13:59N 43°25' E 004°56'0 0.1
2018-Jun-14 13:29N 43°25' E 004°56'0 0.0
2018-Jun-14 12:59N 43°25' E 004°56'0 0.0
2018-Jun-14 12:26N 43°25' E 004°56'0 0.0
2018-Jun-14 11:59N 43°25' E 004°56'0 0.0
2018-Jun-14 11:29N 43°25' E 004°56'0 0.0
2018-Jun-14 10:56N 43°25' E 004°56'0 0.0
2018-Jun-14 10:29N 43°25' E 004°56'0 0.0
2018-Jun-14 09:59N 43°25' E 004°56'0 0.0
2018-Jun-14 09:29N 43°25' E 004°56'0 0.0
2018-Jun-14 08:59N 43°25' E 004°56'0 0.0
2018-Jun-14 08:26N 43°25' E 004°56'0 0.0
2018-Jun-14 07:53N 43°25' E 004°56'0 0.1
2018-Jun-14 07:26N 43°25' E 004°56'2 5.0
2018-Jun-14 07:00N 43°23' E 004°57'4 7.7
2018-Jun-14 06:30N 43°19' E 004°58'  
Track history (hours):
 
Tides and Currents Weather Stations Pressure Air Temp Water Temp Dewpoint Dewpoint Depression Visibility Wind Speed Wind Dir Waves Ship Positions

German Bay

Last reported at 2018-Jun-24 02:59 UTC. Time now 2018-Jun-24 03:09 UTC.
Position N 43°25' E 004°56'.

Length 100 m; draft 4 m.

Type: Ship. MMSI: 304010763.

Date/timePositionNaut miles runAvg speedWind from/ knotsBaromVisibWave heightAir tempDewpointWater temp
2018-Jun-24 02:59N 43°25' E 004°56'0 0.0
2018-Jun-24 02:29N 43°25' E 004°56'0 0.0
2018-Jun-24 01:59N 43°25' E 004°56'0 0.0
2018-Jun-24 01:29N 43°25' E 004°56'0 0.0
2018-Jun-24 00:53N 43°25' E 004°56'0 0.0
2018-Jun-24 00:29N 43°25' E 004°56'0 0.0
2018-Jun-23 23:59N 43°25' E 004°56'0 0.0
2018-Jun-23 23:29N 43°25' E 004°56'0 0.0
2018-Jun-23 22:59N 43°25' E 004°56'0 0.0
2018-Jun-23 22:29N 43°25' E 004°56'0 0.0
2018-Jun-23 21:59N 43°25' E 004°56'0 0.0
2018-Jun-23 21:29N 43°25' E 004°56'0 0.0
2018-Jun-23 20:59N 43°25' E 004°56'0 0.0
2018-Jun-23 20:29N 43°25' E 004°56'0 0.0
2018-Jun-23 19:56N 43°25' E 004°56'0 0.1
2018-Jun-23 19:23N 43°25' E 004°56'0 0.0
2018-Jun-23 18:59N 43°25' E 004°56'0 0.1
2018-Jun-23 18:29N 43°25' E 004°56'0 0.0
2018-Jun-23 17:59N 43°25' E 004°56'0 0.0
2018-Jun-23 17:23N 43°25' E 004°56'0 0.0
2018-Jun-23 16:53N 43°25' E 004°56'0 0.0
2018-Jun-23 16:29N 43°25' E 004°56'0 0.0
2018-Jun-23 15:59N 43°25' E 004°56'0 0.0
2018-Jun-23 15:29N 43°25' E 004°56'0 0.0
2018-Jun-23 14:59N 43°25' E 004°56'0 0.0
2018-Jun-23 14:29N 43°25' E 004°56'0 0.0
2018-Jun-23 13:59N 43°25' E 004°56'0 0.0
2018-Jun-23 13:29N 43°25' E 004°56'0 0.0
2018-Jun-23 12:53N 43°25' E 004°56'0 0.0
2018-Jun-23 12:29N 43°25' E 004°56'0 0.0
2018-Jun-23 11:59N 43°25' E 004°56'0 0.0
2018-Jun-23 11:29N 43°25' E 004°56'0 0.0
2018-Jun-23 10:59N 43°25' E 004°56'0 0.0
2018-Jun-23 10:29N 43°25' E 004°56'0 0.1
2018-Jun-23 09:59N 43°25' E 004°56'0 0.0
2018-Jun-23 09:29N 43°25' E 004°56'0 0.0
2018-Jun-23 08:59N 43°25' E 004°56'0 0.0
2018-Jun-23 08:29N 43°25' E 004°56'0 0.0
2018-Jun-23 07:59N 43°25' E 004°56'0 0.0
2018-Jun-23 07:29N 43°25' E 004°56'0 0.0
2018-Jun-23 06:59N 43°25' E 004°56'0 0.0
2018-Jun-23 06:29N 43°25' E 004°56'0 0.0
2018-Jun-23 05:59N 43°25' E 004°56'0 0.0
2018-Jun-23 05:29N 43°25' E 004°56'0 0.0
2018-Jun-23 04:59N 43°25' E 004°56'0 0.0
2018-Jun-23 04:29N 43°25' E 004°56'0 0.0
2018-Jun-23 03:56N 43°25' E 004°56'0 0.0
2018-Jun-23 03:29N 43°25' E 004°56'0 0.0
2018-Jun-23 02:59N 43°25' E 004°56'0 0.0
2018-Jun-23 02:29N 43°25' E 004°56'0 0.0
2018-Jun-23 01:59N 43°25' E 004°56'0 0.0
2018-Jun-23 01:29N 43°25' E 004°56'0 0.0
2018-Jun-23 00:59N 43°25' E 004°56'0 0.0
2018-Jun-23 00:29N 43°25' E 004°56'0 0.0
2018-Jun-22 23:59N 43°25' E 004°56'0 0.0
2018-Jun-22 23:29N 43°25' E 004°56'0 0.0
2018-Jun-22 22:59N 43°25' E 004°56'0 0.0
2018-Jun-22 22:26N 43°25' E 004°56'0 0.0
2018-Jun-22 21:59N 43°25' E 004°56'0 0.0
2018-Jun-22 21:29N 43°25' E 004°56'0 0.0
2018-Jun-22 20:59N 43°25' E 004°56'0 0.0
2018-Jun-22 20:29N 43°25' E 004°56'0 0.0
2018-Jun-22 19:59N 43°25' E 004°56'2 3.4
2018-Jun-22 19:30N 43°23' E 004°57'4 8.9
2018-Jun-22 19:00N 43°19' E 004°59'13 8.6
2018-Jun-22 17:33N 43°07' E 004°57'1 9.0
2018-Jun-22 17:29N 43°06' E 004°57'4 9.0
2018-Jun-22 17:00N 43°03' E 004°52'128 9.9
2018-Jun-22 04:07N 41°34' E 002°49'210.7
2018-Jun-22 03:56N 41°33' E 002°47'711.1
2018-Jun-22 03:19N 41°29' E 002°40'411.3
2018-Jun-22 03:00N 41°26' E 002°36'611.5
2018-Jun-22 02:30N 41°23' E 002°30'611.2
2018-Jun-22 02:00N 41°19' E 002°25'611.1
2018-Jun-22 01:30N 41°15' E 002°19'611.0
2018-Jun-22 00:56N 41°12' E 002°13'510.9
2018-Jun-22 00:29N 41°09' E 002°07'510.8
2018-Jun-22 00:00N 41°07' E 002°01'610.8
2018-Jun-21 23:26N 41°03' E 001°54'511.0
2018-Jun-21 23:00N 41°01' E 001°48'1311.1
2018-Jun-21 21:48N 40°54' E 001°33'411.2
2018-Jun-21 21:29N 40°53' E 001°29'511.0
2018-Jun-21 21:00N 40°50' E 001°23'10111.2
2018-Jun-21 12:02N 39°38' W 000°10'010.8
2018-Jun-21 12:00N 39°38' W 000°10'68 3.8
2018-Jun-20 18:12N 40°22' E 000°57'2210.4
2018-Jun-20 16:06N 40°37' E 001°19'510.4
2018-Jun-20 15:37N 40°40' E 001°24'310.4
2018-Jun-20 15:21N 40°42' E 001°27'410.4
2018-Jun-20 15:00N 40°44' E 001°30'510.4
2018-Jun-20 14:29N 40°47' E 001°36'610.4
2018-Jun-20 13:57N 40°51' E 001°42'610.2
2018-Jun-20 13:24N 40°54' E 001°47'810.3
2018-Jun-20 12:39N 40°60' E 001°55'310.2
2018-Jun-20 12:20N 41°02' E 001°58'610.2
2018-Jun-20 11:46N 41°05' E 002°04'310.5
2018-Jun-20 11:30N 41°07' E 002°07'510.4
2018-Jun-20 11:00N 41°11' E 002°11'510.6
2018-Jun-20 10:30N 41°15' E 002°17'510.6
2018-Jun-20 10:00N 41°18' E 002°22'510.6
2018-Jun-20 09:30N 41°22' E 002°27'510.5
2018-Jun-20 09:01N 41°24' E 002°33'14510.4
2018-Jun-19 19:07N 43°10' E 004°47'410.7
2018-Jun-19 18:45N 43°13' E 004°51'310.6
2018-Jun-19 18:30N 43°15' E 004°53'510.3
2018-Jun-19 18:00N 43°19' E 004°58'4 8.7
2018-Jun-19 17:30N 43°23' E 004°57'4 7.2
2018-Jun-19 17:00N 43°26' E 004°53'0 0.0
2018-Jun-19 16:30N 43°26' E 004°53'0 0.0
2018-Jun-19 16:00N 43°26' E 004°53'0 0.0
2018-Jun-19 15:30N 43°26' E 004°53'0 0.0
2018-Jun-19 15:00N 43°26' E 004°53'0 0.0
2018-Jun-19 14:30N 43°26' E 004°53'0 0.0
2018-Jun-19 14:00N 43°26' E 004°53'0 0.0
2018-Jun-19 13:30N 43°26' E 004°53'0 0.0
2018-Jun-19 13:00N 43°26' E 004°53'0 0.0
2018-Jun-19 12:30N 43°26' E 004°53'0 0.0
2018-Jun-19 11:57N 43°26' E 004°53'0 0.0
2018-Jun-19 11:30N 43°26' E 004°53'0 0.0
2018-Jun-19 11:00N 43°26' E 004°53'0 0.0
2018-Jun-19 10:30N 43°26' E 004°53'0 0.0
2018-Jun-19 10:00N 43°26' E 004°53'0 0.0
2018-Jun-19 09:30N 43°26' E 004°53'0 0.0
2018-Jun-19 09:00N 43°26' E 004°53'0 0.0
2018-Jun-19 08:30N 43°26' E 004°53'0 0.0
2018-Jun-19 08:00N 43°26' E 004°53'0 0.0
2018-Jun-19 07:30N 43°26' E 004°53'0 0.0
2018-Jun-19 07:00N 43°26' E 004°53'0 0.0
2018-Jun-19 06:30N 43°26' E 004°53'0 0.0
2018-Jun-19 06:00N 43°26' E 004°53'0 0.0
2018-Jun-19 05:21N 43°26' E 004°53'0 0.0
2018-Jun-19 05:00N 43°26' E 004°53'0 0.0
2018-Jun-19 04:30N 43°26' E 004°53'0 0.0
2018-Jun-19 04:00N 43°26' E 004°53'0 0.0
2018-Jun-19 03:30N 43°26' E 004°53'0 0.0
2018-Jun-19 03:00N 43°26' E 004°53'0 0.0
2018-Jun-19 02:30N 43°26' E 004°53'0 0.0
2018-Jun-19 02:00N 43°26' E 004°53'0 0.0
2018-Jun-19 01:30N 43°26' E 004°53'0 0.0
2018-Jun-19 01:00N 43°26' E 004°53'0 0.0
2018-Jun-19 00:27N 43°26' E 004°53'0 0.0
2018-Jun-19 00:00N 43°26' E 004°53'0 0.0
2018-Jun-18 23:30N 43°26' E 004°53'0 0.0
2018-Jun-18 23:00N 43°26' E 004°53'0 0.0
2018-Jun-18 22:30N 43°26' E 004°53'0 0.0
2018-Jun-18 22:00N 43°26' E 004°53'0 0.0
2018-Jun-18 21:30N 43°26' E 004°53'0 0.0
2018-Jun-18 21:00N 43°26' E 004°53'0 0.0
2018-Jun-18 20:30N 43°26' E 004°53'0 0.0
2018-Jun-18 20:00N 43°26' E 004°53'0 0.0
2018-Jun-18 19:30N 43°26' E 004°53'0 0.0
2018-Jun-18 18:54N 43°26' E 004°53'0 0.0
2018-Jun-18 18:30N 43°26' E 004°53'0 0.0
2018-Jun-18 18:00N 43°26' E 004°53'0 0.0
2018-Jun-18 17:30N 43°26' E 004°53'0 0.1
2018-Jun-18 17:01N 43°26' E 004°53'3 6.8
2018-Jun-18 16:30N 43°23' E 004°56'4 7.8
2018-Jun-18 16:00N 43°19' E 004°58'4610.8
2018-Jun-18 11:48N 43°15' E 003°56'142 9.2
2018-Jun-17 20:24N 41°14' E 002°16'511.5
2018-Jun-17 19:59N 41°12' E 002°10'511.3
2018-Jun-17 19:30N 41°10' E 002°03'511.1
2018-Jun-17 19:00N 41°08' E 001°57'611.0
2018-Jun-17 18:30N 41°07' E 001°50'510.9
2018-Jun-17 18:00N 41°05' E 001°43'12410.7
2018-Jun-17 06:26N 39°38' W 000°13'117 5.7
2018-Jun-16 09:44N 41°04' E 001°32'210.0
2018-Jun-16 09:30N 41°04' E 001°35'5 9.8
2018-Jun-16 09:00N 41°06' E 001°41'5 9.8
2018-Jun-16 08:30N 41°07' E 001°48'510.1
2018-Jun-16 08:00N 41°09' E 001°54'5 9.9
2018-Jun-16 07:30N 41°10' E 002°00'510.3
2018-Jun-16 07:01N 41°12' E 002°07'510.2
2018-Jun-16 06:30N 41°13' E 002°13'5 9.7
2018-Jun-16 06:00N 41°15' E 002°19'5 9.9
2018-Jun-16 05:30N 41°19' E 002°24'6 9.5
2018-Jun-16 04:55N 41°22' E 002°30'154 9.7
2018-Jun-15 13:01N 43°15' E 004°53'0 9.3
2018-Jun-15 12:59N 43°15' E 004°53'5 9.6
2018-Jun-15 12:30N 43°18' E 004°57'4 8.5
2018-Jun-15 12:00N 43°23' E 004°57'4 7.4
2018-Jun-15 11:30N 43°26' E 004°54'0 0.0
2018-Jun-15 10:57N 43°26' E 004°54'0 0.0
2018-Jun-15 10:30N 43°26' E 004°54'0 0.0
2018-Jun-15 10:00N 43°26' E 004°54'0 0.0
2018-Jun-15 09:30N 43°26' E 004°54'0 0.0
2018-Jun-15 08:57N 43°26' E 004°54'0 0.0
2018-Jun-15 08:27N 43°26' E 004°54'0 0.0
2018-Jun-15 08:00N 43°26' E 004°54'0 0.0
2018-Jun-15 07:30N 43°26' E 004°54'0 0.0
2018-Jun-15 06:57N 43°26' E 004°54'0 0.0
2018-Jun-15 06:21N 43°26' E 004°54'0 0.0
2018-Jun-15 05:54N 43°26' E 004°54'0 0.0
2018-Jun-15 05:27N 43°26' E 004°54'0 0.0
2018-Jun-15 04:57N 43°26' E 004°54'0 0.0
2018-Jun-15 04:30N 43°26' E 004°54'0 0.0
2018-Jun-15 03:54N 43°26' E 004°54'0 0.0
2018-Jun-15 03:30N 43°26' E 004°54'0 0.0
2018-Jun-15 03:00N 43°26' E 004°54'0 0.0
2018-Jun-15 02:24N 43°26' E 004°54'0 0.0
2018-Jun-15 02:00N 43°26' E 004°54'0 0.0
2018-Jun-15 01:30N 43°26' E 004°54'0 0.0
2018-Jun-15 01:00N 43°26' E 004°54'0 0.0
2018-Jun-15 00:30N 43°26' E 004°54'0 0.0
2018-Jun-14 23:57N 43°26' E 004°54'0 0.0
2018-Jun-14 23:24N 43°26' E 004°54'0 0.0
2018-Jun-14 23:00N 43°26' E 004°54'0 0.0
2018-Jun-14 22:30N 43°26' E 004°54'0 0.0
2018-Jun-14 22:00N 43°26' E 004°54'0 0.0
2018-Jun-14 21:30N 43°26' E 004°54'0 0.0
2018-Jun-14 21:00N 43°26' E 004°54'0 0.0
2018-Jun-14 20:30N 43°26' E 004°54'0 0.0
2018-Jun-14 20:00N 43°26' E 004°54'0 0.0
2018-Jun-14 19:27N 43°26' E 004°54'0 0.0
2018-Jun-14 19:00N 43°26' E 004°54'0 0.2
2018-Jun-14 18:30N 43°26' E 004°54'2 3.4
2018-Jun-14 18:01N 43°25' E 004°56'0 0.2
2018-Jun-14 17:29N 43°25' E 004°56'0 0.0
2018-Jun-14 16:59N 43°25' E 004°56'0 0.0
2018-Jun-14 16:29N 43°25' E 004°56'0 0.0
2018-Jun-14 15:59N 43°25' E 004°56'0 0.0
2018-Jun-14 15:29N 43°25' E 004°56'0 0.0
2018-Jun-14 14:59N 43°25' E 004°56'0 0.0
2018-Jun-14 14:29N 43°25' E 004°56'0 0.0
2018-Jun-14 13:59N 43°25' E 004°56'0 0.1
2018-Jun-14 13:29N 43°25' E 004°56'0 0.0
2018-Jun-14 12:59N 43°25' E 004°56'0 0.0
2018-Jun-14 12:26N 43°25' E 004°56'0 0.0
2018-Jun-14 11:59N 43°25' E 004°56'0 0.0
2018-Jun-14 11:29N 43°25' E 004°56'0 0.0
2018-Jun-14 10:56N 43°25' E 004°56'0 0.0
2018-Jun-14 10:29N 43°25' E 004°56'0 0.0
2018-Jun-14 09:59N 43°25' E 004°56'0 0.0
2018-Jun-14 09:29N 43°25' E 004°56'0 0.0
2018-Jun-14 08:59N 43°25' E 004°56'0 0.0
2018-Jun-14 08:26N 43°25' E 004°56'0 0.0
2018-Jun-14 07:53N 43°25' E 004°56'0 0.1
2018-Jun-14 07:26N 43°25' E 004°56'2 5.0
2018-Jun-14 07:00N 43°23' E 004°57'4 7.7
2018-Jun-14 06:30N 43°19' E 004°58'  

Dump ship's entire track history